AirNav   Phillips 66 Aviation Fuel
 
 1002 users online  

7M2 Mountain View Airport-Wilcox Memorial Field
Mountain View, Arkansas, USA

GOING TO MOUNTAIN VIEW?


FAA INFORMATION EFFECTIVE 29 MARCH 2018

Location

FAA Identifier: 7M2
Lat/Long: 35-51-52.1290N / 092-05-25.2190W
35-51.868817N / 092-05.420317W
35.8644803 / -92.0903386
(estimated)
Elevation: 805 ft. / 245 m (estimated)
Variation: 01E (2010)
From city: 2 miles E of MOUNTAIN VIEW, AR
Time zone: UTC -5 (UTC -6 during Standard Time)
Zip code: 72560

Airport Operations

Airport use: Open to the public
Activation date: 12/1959
Control tower: no
ARTCC: MEMPHIS CENTER
FSS: JONESBORO FLIGHT SERVICE STATION
NOTAMs facility: JBR (NOTAM-D service available)
Attendance: MON-FRI 0800-1700
FOR SVC AFT HRS CALL 870-213-5087.
Pattern altitude: 1805 ft. MSL
Wind indicator: lighted
Segmented circle: no
Lights: DUSK-DAWN. VASI RY 27 OPERATES CONTINUOUSLY.
Beacon: white-green (lighted land airport)
Operates sunset to sunrise.
Taxiway lights: TWY EXIT LIGHT AT END RWY 09.

Airport Communications

CTAF/UNICOM: 122.7
  • APCH/DEP SVC PRVDD BY MEMPHIS ARTCC ON FREQS 126.85/281.55(HARRISON RCAG).

Nearby radio navigation aids

VOR radial/distance  VOR name  Freq  Var
FLPr143/31.6FLIPPIN VOR/DME112.8003E

Airport Services

Fuel available: 100LL
SELF-SERVICE FUEL AVBL 24 HRS WITH CREDIT CARD.
Parking: hangars and tiedowns
Airframe service: MAJOR
Powerplant service: MAJOR
Bottled oxygen: HIGH

Runway Information

Runway 9/27

Dimensions: 4502 x 70 ft. / 1372 x 21 m
Surface: asphalt, in good condition
Runway edge lights: medium intensity
RUNWAY 9  RUNWAY 27
Latitude: 35-51.885333N35-51.852267N
Longitude: 092-05.875667W092-04.964933W
Elevation: 804.0 ft.780.0 ft.
Gradient: 1.0%1.0%
Traffic pattern: leftleft
Runway heading: 092 magnetic, 093 true272 magnetic, 273 true
Markings: nonprecision, in good conditionnonprecision, in good condition
Visual slope indicator: 2-box VASI on left (3.00 degrees glide path)2-box VASI on left (4.00 degrees glide path)
Touchdown point: yes, no lightsyes, no lights
Obstructions: 24 ft. bldg, 520 ft. from runway, 110 ft. right of centerline, 13:1 slope to clear355 ft. tower, lighted, 5280 ft. from runway, 14:1 slope to clear

Airport Ownership and Management from official FAA records

Ownership: Publicly-owned
Owner: CITY OF MOUNTAIN VIEW
CITY HALL
MOUNTAIN VIEW, AR 72560
Phone 870-269-3804
Manager: VICTOR SETSER
P.O. BOX 276
MOUNTAIN VIEW, AR 72560
Phone 870-269-3142

Airport Operational Statistics

Aircraft based on the field: 21
Single engine airplanes: 16
Multi engine airplanes: 2
Jet airplanes: 1
Helicopters: 1
Ultralights: 1
    
Aircraft operations: avg 108/week *
50% transient general aviation
50% local general aviation
<1% military
* for 12-month period ending 31 October 2013

Additional Remarks

RY 27 HAS A 15 FT DROPOFF 400 FT FM THLD.
DEER ON & INVOF ARPT.
(TDZ ELEV SOURCE, RWY 09) FTW FPO.
(TDZ ELEV SOURCE, RWY 27) FTW FPO.

Instrument Procedures

NOTE: All procedures below are presented as PDF files. If you need a reader for these files, you should download the free Adobe Reader.

NOT FOR NAVIGATION. Please procure official charts for flight.
FAA instrument procedures published for use from 29 March 2018 at 0901Z to 26 April 2018 at 0900Z.

 
IAPs - Instrument Approach Procedures
RNAV (GPS) RWY 27   download (181KB)
NOTE: Special Take-Off Minimums/Departure Procedures apply   download (564KB)

Other nearby airports with instrument procedures:

42A - Melbourne Municipal Airport - John E Miller Field (18 nm NE)
2A2 - Holley Mountain Airpark (20 nm SW)
KHBZ - Heber Springs Municipal Airport (22 nm S)
KBVX - Batesville Regional Airport (23 nm E)
KCCA - Clinton Municipal Airport (24 nm SW)
 
Loc | Ops | Rwys | IFR | FBO | Links
Com | Nav | Svcs | Stats | Notes

AirNav Hotels Sweepstakes
 
Area around 7M2 (Mountain View Airport-Wilcox Memorial Field)
 
Road maps at: MapQuest Bing Google
 
Aerial photo
WARNING: Photo may not be current or correct
Aerial photo of 7M2 (Mountain View Airport-Wilcox Memorial Field)
Photo taken 05-Aug-2012
looking northeast.

Do you have a better or more recent aerial photo of Mountain View Airport-Wilcox Memorial Field that you would like to share? If so, please send us your photo.

 
Sectional chart

 
Airport distance calculator
Flying to Mountain View Airport-Wilcox Memorial Field? Find the distance to fly.

From to 7M2

Sunrise and sunset
Times for 22-Apr-2018
 Local
(UTC-5)
 Zulu
(UTC)
Morning civil twilight06:0111:01
Sunrise06:2711:27
Sunset19:4600:46
Evening civil twilight20:1301:13

Current date and time
Zulu (UTC)  22-Apr-2018 19:01:28
Local (UTC-5)  22-Apr-2018 14:01:28
 
METAR
KBVX 
23nm E 
221856Z AUTO 31004KT 3SM -RA BR OVC003 14/13 A2991 RMK AO2 SLP127 P0012 T01390133
KCCA 
24nm SW 
221855Z AUTO 32006G12KT 7SM OVC015 16/13 A2991 RMK AO2
KFLP 
31nm NW 
221856Z AUTO VRB04KT 10SM -RA SCT035 BKN042 OVC080 13/12 A2993 RMK AO2 SLP132 T01330122 PNO $
KBPK 
35nm NW 
221853Z AUTO VRB06KT 10SM -RA FEW007 BKN050 OVC070 14/14 A2991 RMK AO2 SLP125 P0005 T01440139
KSRC 
41nm SE 
221856Z AUTO 31004KT 10SM FEW009 BKN012 OVC027 17/17 A2989 RMK AO2 TSE15RAE36 SLP129 P0005 T01720167
TAF
KBPK 
35nm NW 
221722Z 2218/2318 36008G15KT 6SM -SHRA BR BKN030 OVC050 TEMPO 2218/2220 3SM -TSRA BR BKN015 OVC025CB FM222100 34008KT P6SM VCSH SCT012 OVC025 FM230600 32008KT 5SM BR BKN008 OVC015
NOTAMs
Click for the latest NOTAMs
NOTAMs are issued by the DoD/FAA and will open in a separate window not controlled by AirNav.

 

 
 

FBO, Fuel Providers, and Aircraft Ground Support

  
 Business Name 
 
 Contact 
 
 Services / Description 
 
Fuel Prices
 
Comments
  
City of Mountain View (FBO) 870-269-3142
no information available

If you are affiliated with City of Mountain View (FBO) and would like to show here your services, contact info, web link, logo, and more, click here
100LL
SS $3.70 
 Updated 06-Nov-2017
 
   2 read write
SS=Self service
Update Fuel Prices
 

Would you like to see your business listed on this page?

 If your business provides an interesting product or service to pilots, flight crews, aircraft, or users of the Mountain View Airport-Wilcox Memorial Field, you should consider listing it here.  To start the listing process, click on the button below
 
Add a business
 

Other Pages about Mountain View Airport-Wilcox Memorial Field

aros.com/...
 
Update a link
 
Copyright © AirNav, LLC. All rights reserved. Privacy Policy  Contact